createdAt,value
2022-10-31T00:01:12.878Z,26.98
2022-10-31T00:03:39.573Z,30.08
2022-10-31T00:06:06.326Z,26.08
2022-10-31T00:08:33.053Z,23.70
2022-10-31T00:10:59.732Z,24.85
2022-10-31T00:13:26.547Z,25.05
2022-10-31T00:15:53.428Z,25.38
2022-10-31T00:18:20.072Z,25.85
2022-10-31T00:20:46.808Z,29.27
2022-10-31T00:23:13.617Z,26.52
2022-10-31T00:25:41.255Z,28.65
2022-10-31T00:28:09.995Z,25.92
2022-10-31T00:30:36.886Z,26.75
2022-10-31T00:33:05.177Z,26.10
2022-10-31T00:35:32.104Z,26.73
2022-10-31T00:37:58.806Z,25.80
2022-10-31T00:40:25.530Z,24.17
2022-10-31T00:42:52.249Z,28.83
2022-10-31T00:45:18.996Z,25.52
2022-10-31T00:47:45.637Z,24.20
2022-10-31T00:50:12.309Z,25.33
2022-10-31T00:52:39.018Z,25.45
2022-10-31T00:55:05.775Z,23.40
2022-10-31T00:57:32.489Z,25.58
2022-10-31T00:59:59.256Z,22.77
2022-10-31T01:02:26.210Z,23.45
2022-10-31T01:04:53.030Z,26.75
2022-10-31T01:07:19.849Z,23.80
2022-10-31T01:09:46.590Z,27.63
2022-10-31T01:12:13.314Z,26.35
2022-10-31T01:14:44.097Z,22.88
2022-10-31T01:17:11.535Z,26.65
2022-10-31T01:19:38.624Z,23.25
2022-10-31T01:22:05.676Z,23.33
2022-10-31T01:24:32.585Z,26.08
2022-10-31T01:26:59.513Z,23.90
2022-10-31T01:29:26.268Z,27.02
2022-10-31T01:31:53.068Z,25.33
2022-10-31T01:34:20.113Z,23.40
2022-10-31T01:36:51.940Z,23.05
2022-10-31T01:39:20.262Z,24.63
2022-10-31T01:41:52.984Z,20.17
2022-10-31T01:44:19.663Z,21.58
2022-10-31T01:46:51.581Z,22.90
2022-10-31T01:49:25.603Z,24.45
2022-10-31T01:51:59.275Z,23.88
2022-10-31T01:54:33.138Z,27.40
2022-10-31T01:57:01.234Z,23.73
2022-10-31T01:59:32.330Z,23.15
2022-10-31T02:01:59.266Z,21.10
2022-10-31T02:04:27.103Z,22.48
2022-10-31T02:07:01.924Z,23.13
2022-10-31T02:09:30.447Z,22.58
2022-10-31T02:11:59.887Z,23.63
2022-10-31T02:14:28.955Z,21.98
2022-10-31T02:16:56.287Z,23.52
2022-10-31T02:19:41.992Z,24.83
2022-10-31T02:22:13.484Z,26.13
2022-10-31T02:25:30.638Z,22.33
2022-10-31T02:28:31.901Z,22.80
2022-10-31T02:31:17.229Z,21.23
2022-10-31T02:33:51.786Z,22.05
2022-10-31T02:36:27.062Z,23.98
2022-10-31T02:39:14.943Z,24.27
2022-10-31T02:41:59.857Z,23.13
2022-10-31T02:44:39.352Z,23.75
2022-10-31T02:47:18.030Z,23.67
2022-10-31T02:49:58.131Z,21.52
2022-10-31T02:52:31.520Z,21.80
2022-10-31T02:54:58.544Z,21.40
2022-10-31T02:57:29.381Z,22.73
2022-10-31T03:00:06.465Z,22.13
2022-10-31T03:03:15.616Z,23.50
2022-10-31T03:05:42.575Z,22.95
2022-10-31T03:08:32.435Z,22.00
2022-10-31T03:11:02.118Z,21.63
2022-10-31T03:14:00.789Z,23.73
2022-10-31T03:16:51.472Z,21.50
2022-10-31T03:19:21.176Z,22.73
2022-10-31T03:21:57.100Z,23.30
2022-10-31T03:24:28.385Z,22.88
2022-10-31T03:26:58.238Z,22.50
2022-10-31T03:29:29.226Z,21.95
2022-10-31T03:32:00.120Z,24.40
2022-10-31T03:34:30.398Z,24.50
2022-10-31T03:37:00.743Z,23.85
2022-10-31T03:39:28.975Z,23.92
2022-10-31T03:42:06.508Z,23.52
2022-10-31T03:44:35.862Z,22.20
2022-10-31T03:47:05.057Z,22.75
2022-10-31T03:49:33.703Z,22.38
2022-10-31T03:52:18.412Z,22.73
2022-10-31T03:57:30.524Z,20.08
2022-10-31T04:00:04.778Z,20.67
2022-10-31T04:02:35.037Z,18.58
2022-10-31T04:05:02.946Z,22.42
2022-10-31T04:07:35.756Z,19.42
2022-10-31T04:10:07.640Z,18.83
2022-10-31T04:12:37.064Z,18.02
2022-10-31T04:15:06.987Z,20.38
2022-10-31T04:17:40.093Z,19.42
2022-10-31T04:20:07.590Z,19.17
2022-10-31T04:22:34.444Z,18.83
2022-10-31T04:25:01.252Z,20.00
2022-10-31T04:27:28.403Z,18.70
2022-10-31T04:29:55.070Z,16.67
2022-10-31T04:32:21.744Z,19.45
2022-10-31T04:34:48.402Z,18.00
2022-10-31T04:37:15.072Z,18.65
2022-10-31T04:39:41.784Z,18.50
2022-10-31T04:42:08.424Z,16.67
2022-10-31T04:44:35.263Z,18.10
2022-10-31T04:47:01.921Z,16.90
2022-10-31T04:49:28.614Z,19.52
2022-10-31T04:51:55.421Z,17.60
2022-10-31T04:54:22.107Z,20.48
2022-10-31T04:56:48.884Z,20.00
2022-10-31T04:59:15.590Z,18.08
2022-10-31T05:01:42.405Z,18.00
2022-10-31T05:04:09.382Z,15.45
2022-10-31T05:06:36.035Z,17.70
2022-10-31T05:09:02.980Z,19.75
2022-10-31T05:11:29.720Z,17.08
2022-10-31T05:13:56.361Z,18.88
2022-10-31T05:16:23.011Z,16.08
2022-10-31T05:18:49.749Z,17.73
2022-10-31T05:21:16.471Z,17.95
2022-10-31T05:23:47.456Z,20.08
2022-10-31T05:26:15.504Z,19.65
2022-10-31T05:28:42.142Z,22.42
2022-10-31T05:31:08.732Z,29.42
2022-10-31T05:33:35.467Z,27.67
2022-10-31T05:36:02.128Z,35.85
2022-10-31T05:38:28.848Z,40.50
2022-10-31T05:40:59.012Z,38.50
2022-10-31T05:43:25.680Z,30.65
2022-10-31T05:45:56.534Z,35.35
2022-10-31T05:48:23.673Z,35.97
2022-10-31T05:50:50.728Z,31.48
2022-10-31T05:53:17.739Z,36.40
2022-10-31T05:55:44.585Z,39.65
2022-10-31T05:58:11.722Z,48.10
2022-10-31T06:00:39.503Z,56.65
2022-10-31T06:05:36.363Z,51.60
2022-10-31T06:08:03.708Z,39.10
2022-10-31T06:10:30.804Z,37.50
2022-10-31T06:12:57.631Z,42.03
2022-10-31T06:15:24.996Z,39.67
2022-10-31T06:18:05.414Z,45.35
2022-10-31T06:20:32.995Z,36.85
2022-10-31T06:23:00.146Z,44.30
2022-10-31T06:25:27.742Z,43.17
2022-10-31T06:27:54.799Z,37.72
2022-10-31T06:30:21.793Z,34.65
2022-10-31T06:32:48.639Z,49.33
2022-10-31T06:35:15.292Z,45.83
2022-10-31T06:37:44.346Z,42.78
2022-10-31T06:40:13.522Z,43.50
2022-10-31T06:42:40.196Z,44.45
2022-10-31T06:45:07.500Z,49.70
2022-10-31T06:47:41.420Z,50.08
2022-10-31T06:50:12.633Z,43.45
2022-10-31T06:52:39.256Z,52.20
2022-10-31T06:55:06.289Z,49.67
2022-10-31T06:57:32.988Z,54.85
2022-10-31T06:59:59.685Z,59.25
2022-10-31T07:02:26.424Z,55.83
2022-10-31T07:04:53.124Z,59.22
2022-10-31T07:07:22.347Z,64.07
2022-10-31T07:09:49.061Z,68.18
2022-10-31T07:12:16.707Z,58.03
2022-10-31T07:14:43.403Z,56.35
2022-10-31T07:17:10.230Z,70.88
2022-10-31T07:19:36.982Z,94.57
2022-10-31T07:22:03.627Z,117.82
2022-10-31T07:24:31.395Z,140.23
2022-10-31T07:29:29.590Z,138.75
2022-10-31T07:31:56.295Z,146.75
2022-10-31T07:34:23.011Z,152.73
2022-10-31T07:36:51.909Z,157.63
2022-10-31T07:39:18.643Z,185.23
2022-10-31T07:41:45.333Z,189.07
2022-10-31T07:44:12.037Z,198.82
2022-10-31T07:46:38.675Z,197.68
2022-10-31T07:49:05.389Z,194.68
2022-10-31T07:51:32.175Z,203.02
2022-10-31T07:53:58.918Z,213.95
2022-10-31T07:56:25.642Z,264.27
2022-10-31T07:58:52.273Z,255.38
2022-10-31T08:01:18.983Z,181.40
2022-10-31T08:03:45.724Z,255.07
2022-10-31T08:06:12.599Z,274.45
2022-10-31T08:08:39.256Z,306.23
2022-10-31T08:11:06.124Z,281.27
2022-10-31T08:13:33.010Z,229.70
2022-10-31T08:16:04.609Z,234.88
2022-10-31T08:18:31.435Z,226.02
2022-10-31T08:20:58.146Z,245.50
2022-10-31T08:23:24.911Z,211.50
2022-10-31T08:25:51.611Z,216.57
2022-10-31T08:28:18.344Z,321.33
2022-10-31T08:30:46.923Z,267.15
2022-10-31T08:33:16.446Z,235.38
2022-10-31T08:35:43.797Z,267.98
2022-10-31T08:38:12.544Z,229.48
2022-10-31T08:40:39.692Z,243.20
2022-10-31T08:43:14.280Z,228.82
2022-10-31T08:45:41.741Z,251.13
2022-10-31T08:48:12.137Z,225.63
2022-10-31T08:50:39.681Z,259.92
2022-10-31T08:53:12.136Z,209.23
2022-10-31T08:55:40.577Z,229.15
2022-10-31T08:58:10.197Z,206.07
2022-10-31T09:00:37.015Z,218.25
2022-10-31T09:03:06.793Z,265.25
2022-10-31T09:05:34.360Z,223.57
2022-10-31T09:08:06.011Z,236.73
2022-10-31T09:10:35.165Z,208.48
2022-10-31T09:13:16.972Z,203.07
2022-10-31T09:15:45.265Z,211.60
2022-10-31T09:18:13.308Z,204.40
2022-10-31T09:20:41.817Z,217.38
2022-10-31T09:23:12.601Z,189.68
2022-10-31T09:25:39.844Z,190.25
2022-10-31T09:28:10.368Z,178.27
2022-10-31T09:30:37.630Z,172.32
2022-10-31T09:33:06.987Z,166.30
2022-10-31T09:35:34.058Z,155.85
2022-10-31T09:38:22.337Z,147.50
2022-10-31T09:41:02.063Z,123.97
2022-10-31T09:44:10.492Z,130.00
2022-10-31T09:46:46.527Z,120.57
2022-10-31T09:49:33.834Z,121.10
2022-10-31T09:52:12.539Z,105.40
2022-10-31T09:54:45.840Z,111.28
2022-10-31T09:57:16.319Z,106.65
2022-10-31T09:59:45.451Z,89.00
2022-10-31T10:02:24.341Z,87.75
2022-10-31T10:05:12.872Z,85.25
2022-10-31T10:08:08.829Z,72.60
2022-10-31T10:11:14.417Z,78.93
2022-10-31T10:13:52.493Z,77.10
2022-10-31T10:16:45.438Z,68.90
2022-10-31T10:19:15.140Z,71.38
2022-10-31T10:21:50.984Z,73.65
2022-10-31T10:24:32.465Z,62.85
2022-10-31T10:27:09.887Z,65.63
2022-10-31T10:29:55.219Z,64.45
2022-10-31T10:32:26.297Z,64.40
2022-10-31T10:34:59.148Z,61.70
2022-10-31T10:37:36.950Z,62.42
2022-10-31T10:43:23.032Z,57.28
2022-10-31T10:46:43.801Z,54.33
2022-10-31T10:49:15.988Z,60.90
2022-10-31T10:52:07.344Z,53.90
2022-10-31T10:54:45.704Z,52.78
2022-10-31T10:57:22.757Z,52.13
2022-10-31T10:59:50.220Z,54.80
2022-10-31T11:02:27.310Z,50.10
2022-10-31T11:04:57.866Z,47.15
2022-10-31T11:07:24.805Z,54.55
2022-10-31T11:09:51.656Z,51.88
2022-10-31T11:12:31.683Z,60.22
2022-10-31T11:15:04.861Z,53.45
2022-10-31T11:17:38.088Z,62.13
2022-10-31T11:20:07.727Z,57.83
2022-10-31T11:22:34.565Z,60.90
2022-10-31T11:25:01.174Z,61.42
2022-10-31T11:27:28.011Z,58.13
2022-10-31T11:30:05.477Z,59.70
2022-10-31T11:32:32.691Z,55.42
2022-10-31T11:35:03.249Z,59.83
2022-10-31T11:37:36.076Z,54.83
2022-10-31T11:40:06.485Z,61.72
2022-10-31T11:42:42.445Z,58.63
2022-10-31T11:45:29.696Z,61.75
2022-10-31T11:47:59.930Z,61.28
2022-10-31T11:50:41.956Z,58.60
2022-10-31T11:53:34.055Z,54.33
2022-10-31T11:56:16.667Z,55.33
2022-10-31T11:58:43.838Z,51.03
2022-10-31T12:01:26.233Z,48.63
2022-10-31T12:04:02.058Z,51.53
2022-10-31T12:06:38.638Z,49.33
2022-10-31T12:09:28.848Z,47.08
2022-10-31T12:12:06.616Z,50.05
2022-10-31T12:17:20.987Z,49.15
2022-10-31T12:20:41.910Z,46.40
2022-10-31T12:23:25.579Z,46.35
2022-10-31T12:26:11.675Z,43.88
2022-10-31T12:28:59.666Z,43.60
2022-10-31T12:31:40.986Z,42.50
2022-10-31T12:34:35.235Z,45.97
2022-10-31T12:37:20.601Z,48.22
2022-10-31T12:39:57.140Z,47.15
2022-10-31T12:42:37.741Z,46.15
2022-10-31T12:45:38.119Z,44.88
2022-10-31T12:48:16.788Z,46.60
2022-10-31T12:51:08.605Z,47.75
2022-10-31T12:54:10.700Z,38.17
2022-10-31T12:57:16.568Z,37.83
2022-10-31T13:00:04.343Z,37.45
2022-10-31T13:02:43.521Z,40.20
2022-10-31T13:05:44.409Z,42.65
2022-10-31T13:08:36.053Z,41.85
2022-10-31T13:11:08.355Z,42.90
2022-10-31T13:13:54.930Z,38.95
2022-10-31T13:16:27.635Z,38.80
2022-10-31T13:19:09.861Z,36.78
2022-10-31T13:21:56.055Z,38.38
2022-10-31T13:24:30.938Z,30.85
2022-10-31T13:27:00.375Z,34.65
2022-10-31T13:29:32.599Z,36.10
2022-10-31T13:32:09.904Z,28.30
2022-10-31T13:34:57.100Z,34.42
2022-10-31T13:37:35.873Z,35.45
2022-10-31T13:40:15.924Z,33.25
2022-10-31T13:42:53.076Z,33.85
2022-10-31T13:45:23.101Z,33.40
2022-10-31T13:48:02.723Z,34.30
2022-10-31T13:50:32.547Z,30.00
2022-10-31T13:53:44.413Z,30.55
2022-10-31T13:56:11.272Z,30.17
2022-10-31T13:58:37.911Z,29.05
2022-10-31T14:01:13.998Z,34.08
2022-10-31T14:04:06.242Z,31.42
2022-10-31T14:06:55.676Z,32.35
2022-10-31T14:09:39.423Z,28.58
2022-10-31T14:14:45.768Z,31.63
2022-10-31T14:17:22.365Z,28.10
2022-10-31T14:20:21.349Z,24.92
2022-10-31T14:22:48.250Z,27.42
2022-10-31T14:25:34.449Z,20.73
2022-10-31T14:28:23.608Z,24.30
2022-10-31T14:30:55.967Z,26.10
2022-10-31T14:33:26.659Z,23.40
2022-10-31T14:36:23.916Z,23.55
2022-10-31T14:39:05.703Z,26.88
2022-10-31T14:42:03.728Z,25.35
2022-10-31T14:45:01.382Z,31.20
2022-10-31T14:47:44.298Z,32.42
2022-10-31T14:50:25.631Z,32.70
2022-10-31T14:52:57.715Z,28.92
2022-10-31T14:55:25.642Z,31.30
2022-10-31T14:58:00.925Z,32.05
2022-10-31T15:00:30.007Z,29.55
2022-10-31T15:03:02.877Z,30.20
2022-10-31T15:05:30.918Z,28.75
2022-10-31T15:07:59.670Z,33.35
2022-10-31T15:10:33.111Z,34.65
2022-10-31T15:13:19.452Z,33.85
2022-10-31T15:15:49.728Z,28.67
2022-10-31T15:18:22.884Z,27.42
2022-10-31T15:20:51.695Z,28.88
2022-10-31T15:23:29.970Z,29.65
2022-10-31T15:26:06.023Z,30.80
2022-10-31T15:28:33.383Z,30.73
2022-10-31T15:31:02.592Z,32.88
2022-10-31T15:33:38.240Z,32.80
2022-10-31T15:36:07.166Z,32.95
2022-10-31T15:38:34.044Z,32.63
2022-10-31T15:41:04.695Z,31.60
2022-10-31T15:43:37.198Z,32.70
2022-10-31T15:46:11.005Z,32.42
2022-10-31T15:48:39.363Z,30.00
2022-10-31T15:51:06.956Z,31.65
2022-10-31T15:53:42.624Z,25.45
2022-10-31T15:56:13.713Z,29.50
2022-10-31T15:58:45.251Z,34.17
2022-10-31T16:04:20.567Z,30.42
2022-10-31T16:07:12.810Z,33.97
2022-10-31T16:09:50.896Z,28.55
2022-10-31T16:12:21.503Z,32.88
2022-10-31T16:14:51.470Z,41.38
2022-10-31T16:17:22.236Z,39.47
2022-10-31T16:19:50.464Z,41.67
2022-10-31T16:22:24.767Z,42.78
2022-10-31T16:25:19.801Z,46.53
2022-10-31T16:27:54.495Z,45.28
2022-10-31T16:30:42.766Z,44.83
2022-10-31T16:33:37.741Z,47.50
2022-10-31T16:36:35.942Z,47.17
2022-10-31T16:39:04.092Z,52.90
2022-10-31T16:41:31.021Z,66.55
2022-10-31T16:43:57.868Z,63.97
2022-10-31T16:46:28.629Z,61.47
2022-10-31T16:48:55.622Z,62.83
2022-10-31T16:51:22.393Z,70.18
2022-10-31T16:53:52.946Z,77.43
2022-10-31T16:56:28.555Z,77.32
2022-10-31T16:58:55.293Z,69.47
2022-10-31T17:01:22.353Z,84.57
2022-10-31T17:03:49.244Z,81.07
2022-10-31T17:06:16.150Z,81.80
2022-10-31T17:08:42.865Z,95.47
2022-10-31T17:11:18.151Z,94.65
2022-10-31T17:13:44.927Z,78.53
2022-10-31T17:16:14.320Z,74.95
2022-10-31T17:18:41.725Z,84.50
2022-10-31T17:21:16.467Z,79.65
2022-10-31T17:23:44.879Z,82.00
2022-10-31T17:26:11.887Z,84.93
2022-10-31T17:28:38.570Z,75.35
2022-10-31T17:31:05.375Z,72.32
2022-10-31T17:33:32.223Z,70.78
2022-10-31T17:35:58.901Z,79.53
2022-10-31T17:38:25.814Z,74.93
2022-10-31T17:40:52.693Z,79.57
2022-10-31T17:43:19.519Z,89.18
2022-10-31T17:45:46.323Z,79.07
2022-10-31T17:48:13.152Z,79.65
2022-10-31T17:50:39.975Z,87.90
2022-10-31T17:53:06.620Z,85.28
2022-10-31T17:55:36.257Z,79.50
2022-10-31T17:58:04.717Z,75.00
2022-10-31T18:00:31.673Z,73.10
2022-10-31T18:02:58.864Z,78.57
2022-10-31T18:05:26.073Z,73.55
2022-10-31T18:07:53.115Z,78.43
2022-10-31T18:10:19.915Z,75.18
2022-10-31T18:12:48.648Z,82.57
2022-10-31T18:15:16.408Z,78.60
2022-10-31T18:17:43.277Z,81.70
2022-10-31T18:20:10.758Z,110.10
2022-10-31T18:22:37.553Z,91.90
2022-10-31T18:25:05.431Z,86.00
2022-10-31T18:27:32.124Z,90.78
2022-10-31T18:29:58.846Z,110.30
2022-10-31T18:32:25.829Z,91.30
2022-10-31T18:34:52.451Z,94.82
2022-10-31T18:37:19.232Z,97.72
2022-10-31T18:39:46.106Z,91.53
2022-10-31T18:42:12.868Z,88.07
2022-10-31T18:44:39.921Z,80.68
2022-10-31T18:47:06.660Z,83.15
2022-10-31T18:49:33.542Z,79.88
2022-10-31T18:52:00.767Z,85.07
2022-10-31T18:54:27.588Z,83.57
2022-10-31T18:56:55.891Z,78.15
2022-10-31T18:59:22.809Z,84.03
2022-10-31T19:01:50.035Z,83.40
2022-10-31T19:04:16.774Z,74.45
2022-10-31T19:06:43.758Z,76.50
2022-10-31T19:09:10.982Z,83.75
2022-10-31T19:11:38.715Z,76.03
2022-10-31T19:14:08.178Z,80.40
2022-10-31T19:16:35.487Z,79.25
2022-10-31T19:19:02.334Z,81.85
2022-10-31T19:21:30.530Z,98.47
2022-10-31T19:23:58.156Z,85.45
2022-10-31T19:26:26.235Z,85.13
2022-10-31T19:28:53.325Z,81.90
2022-10-31T19:31:20.211Z,80.03
2022-10-31T19:33:47.663Z,97.35
2022-10-31T19:36:18.155Z,77.07
2022-10-31T19:38:47.608Z,74.68
2022-10-31T19:41:20.327Z,76.80
2022-10-31T19:43:50.676Z,86.82
2022-10-31T19:46:22.705Z,85.82
2022-10-31T19:49:06.188Z,86.32
2022-10-31T19:51:32.849Z,94.20
2022-10-31T19:53:59.526Z,87.28
2022-10-31T19:56:26.448Z,91.45
2022-10-31T19:58:53.365Z,108.28
2022-10-31T20:01:22.673Z,103.22
2022-10-31T20:03:50.211Z,98.90
2022-10-31T20:06:52.429Z,107.55
2022-10-31T20:09:19.313Z,142.55
2022-10-31T20:11:46.311Z,114.60
2022-10-31T20:14:15.634Z,110.00
2022-10-31T20:16:42.993Z,114.70
2022-10-31T20:19:09.917Z,155.13
2022-10-31T20:21:40.296Z,116.45
2022-10-31T20:24:09.129Z,122.20
2022-10-31T20:26:40.759Z,124.10
2022-10-31T20:31:36.683Z,88.47
2022-10-31T20:34:04.189Z,94.80
2022-10-31T20:36:31.104Z,90.47
2022-10-31T20:38:58.810Z,108.63
2022-10-31T20:41:25.796Z,120.10
2022-10-31T20:43:52.841Z,132.93
2022-10-31T20:46:21.953Z,132.25
2022-10-31T20:48:50.406Z,125.70
2022-10-31T20:51:26.787Z,121.68
2022-10-31T20:53:55.808Z,148.15
2022-10-31T20:56:25.333Z,155.55
2022-10-31T20:58:54.717Z,164.05
2022-10-31T21:01:24.647Z,149.13
2022-10-31T21:03:52.306Z,151.30
2022-10-31T21:06:20.419Z,159.43
2022-10-31T21:08:47.490Z,158.38
2022-10-31T21:11:17.522Z,161.30
2022-10-31T21:13:46.533Z,165.68
2022-10-31T21:16:15.700Z,164.90
2022-10-31T21:18:44.114Z,168.15
2022-10-31T21:21:18.401Z,167.85
2022-10-31T21:23:45.506Z,159.38
2022-10-31T21:26:19.119Z,155.23
2022-10-31T21:28:45.731Z,154.38
2022-10-31T21:31:15.134Z,159.40
2022-10-31T21:33:42.625Z,163.40
2022-10-31T21:36:10.302Z,166.75
2022-10-31T21:38:37.618Z,165.25
2022-10-31T21:41:06.120Z,168.60
2022-10-31T21:43:35.838Z,171.90
2022-10-31T21:46:08.243Z,170.00
2022-10-31T21:48:39.095Z,153.38
2022-10-31T21:51:09.022Z,147.35
2022-10-31T21:53:55.340Z,150.80
2022-10-31T21:56:23.454Z,145.15
2022-10-31T21:58:50.884Z,150.93
2022-10-31T22:01:18.290Z,139.75
2022-10-31T22:03:45.638Z,138.50
2022-10-31T22:06:13.424Z,130.25
2022-10-31T22:08:40.733Z,122.68
2022-10-31T22:11:15.841Z,124.45
2022-10-31T22:13:44.267Z,134.93
2022-10-31T22:16:13.316Z,142.68
2022-10-31T22:18:41.470Z,129.45
2022-10-31T22:21:14.812Z,141.70
2022-10-31T22:23:42.112Z,123.20
2022-10-31T22:26:17.181Z,130.13
2022-10-31T22:28:45.971Z,119.63
2022-10-31T22:31:15.098Z,131.10
2022-10-31T22:33:42.056Z,120.65
2022-10-31T22:36:11.239Z,119.55
2022-10-31T22:38:40.359Z,123.93
2022-10-31T22:41:09.036Z,113.80
2022-10-31T22:43:35.928Z,104.25
2022-10-31T22:46:05.221Z,101.57
2022-10-31T22:48:39.070Z,94.85
2022-10-31T22:51:10.609Z,94.70
2022-10-31T22:53:39.050Z,87.18
2022-10-31T22:56:07.743Z,81.78
2022-10-31T22:58:35.228Z,80.82
2022-10-31T23:01:07.560Z,73.90
2022-10-31T23:03:36.159Z,81.10
2022-10-31T23:06:04.649Z,76.85
2022-10-31T23:08:34.198Z,78.55
2022-10-31T23:11:01.047Z,79.05
2022-10-31T23:13:46.959Z,69.18
2022-10-31T23:16:13.799Z,82.15
2022-10-31T23:18:55.506Z,79.88
2022-10-31T23:21:43.844Z,79.18
2022-10-31T23:24:13.833Z,78.20
2022-10-31T23:26:59.052Z,76.30
2022-10-31T23:29:25.815Z,92.85
2022-10-31T23:31:54.666Z,94.18
2022-10-31T23:34:24.509Z,90.18
2022-10-31T23:36:51.138Z,97.15
2022-10-31T23:39:21.198Z,94.15
2022-10-31T23:41:51.048Z,105.68
2022-10-31T23:44:17.730Z,82.90
2022-10-31T23:46:44.345Z,82.47
2022-10-31T23:49:11.223Z,92.82
2022-10-31T23:51:39.269Z,104.93
2022-10-31T23:54:06.228Z,87.80
2022-10-31T23:56:33.053Z,91.25
2022-10-31T23:58:59.928Z,81.03
